Portada
METAR-TAF:

METAR-TAF

Aeroports :

Nawabshah, Pakistan

latitud: 26-15N, longitud: 068-22E, altitud: 37 m

Observació

L'informe es va fer fa 15 minuts, a les 06:00 UTC
Vent 4 kt del Nord-Est
Temperatura 30°C
Humitat 52%
Pressió 1016 hPa
Visibilitat: 4000 m
fum

METAR: OPNH 210600Z 04504KT 4000 FU NSC 30/19 Q1016 NOSIG

Hora: 11:15 (06:15 UTC)

Pronòstic

L'informe es va fer fa 2 hores i 45 minuts, a les 03:30 UTC
Pronòstic vàlid del 21 a les 06 UTC al 22 a les 12 UTC
Vent 8 kt del Nord/Nord-Est
Visibilitat: 5000 m
calitja
Evolucionant progressivament
l' 21 a les 18 UTC al 21 a les 20 UTC
Vent 5 kt del Sud
Visibilitat: 4000 m
calitja
Temporalment
l' 22 a les 00 UTC al 22 a les 04 UTC
Vent 5 kt del Sud
Visibilitat: 3000 m
fum
A partir de les 2206 UTC
Vent 5 kt del Sud amb ràfegues de 15 kt
Visibilitat: 5000 m
calitja

TAF: OPNH 210330Z 2106/2212 03008KT 5000 HZ NSC BECMG 2118/2120 18005KT 4000 HZ NSC TEMPO 2200/2204 18005KT 3000 FU NSC FM22060 18005G15KT 5000 HZ NSC

Observacions i pronòstics meteorològics de més de 4000 aeroports (METAR i TAF).

Les estacions disponibles són els punts grocs i vermells al mapa.

Posi el ratolí al punt desitjat per veure el nom de l'estació.

Feu clic per veure les observacions i els pronòstics meteorològics.

Per canviar el mapa: feu clic els botons verds amb una creu de color negre per apropar; al botó verd amb un guió per allunyar la imatge; o en les fletxes verdes per a mapes adjacents.


METAR-TAF: